Platitera Tonouranon — SX7180 — position and weather

sailwx.info

Track history (hours):
 
Tides and Currents Weather Stations Pressure Air Temp Water Temp Dewpoint Dewpoint Depression Visibility Wind Speed Wind Dir Waves Ship Positions

Platitera Tonouranon

Last reported at 2015-Apr-01 17:04 UTC. Time now 2015-Apr-02 03:11 UTC.
Position N 37°56' E 023°41'.

Length 55 m; draft 3.8 m.

Type: Ship (hazmat cat A). MMSI: 237038200.

Date/timePositionNaut miles runAvg speedWind from/ knotsBaromVisibWave heightAir tempDewpointWater temp
2015-Apr-01 17:04N 37°56' E 023°41'1 1.6
2015-Apr-01 16:33N 37°56' E 023°40'1110.7
2015-Apr-01 15:33N 37°49' E 023°30'5 5.4
2015-Apr-01 14:33N 37°45' E 023°26'0 0.0
2015-Apr-01 13:33N 37°45' E 023°26'5 5.3
2015-Apr-01 12:33N 37°39' E 023°25'12 6.1
2015-Apr-01 10:33N 37°28' E 023°31'3 1.0
2015-Apr-01 07:31N 37°31' E 023°33'1212.0
2015-Apr-01 06:29N 37°43' E 023°35'1112.0
2015-Apr-01 05:33N 37°53' E 023°39'3 3.0
2015-Apr-01 04:33N 37°56' E 023°41'0 0.0
2015-Mar-31 16:33N 37°56' E 023°41'1010.3
2015-Mar-31 15:33N 37°50' E 023°31'12 3.9
2015-Mar-31 12:27N 37°38' E 023°25'9 1.4
2015-Mar-31 06:23N 37°43' E 023°34'1012.2
2015-Mar-31 05:33N 37°53' E 023°39'4 3.9
2015-Mar-31 04:33N 37°56' E 023°41'0 0.0
2015-Mar-30 16:33N 37°56' E 023°41'1110.7
2015-Mar-30 15:33N 37°50' E 023°30'17 4.7
2015-Mar-30 12:04N 37°34' E 023°25'12 2.2
2015-Mar-30 06:28N 37°44' E 023°34'1112.0
2015-Mar-30 05:34N 37°54' E 023°39'3 2.9
2015-Mar-30 04:33N 37°56' E 023°41'1 0.1
2015-Mar-29 16:33N 37°55' E 023°40'1211.6
2015-Mar-29 15:33N 37°48' E 023°28'4 1.7
2015-Mar-29 13:11N 37°45' E 023°25'912.0
2015-Mar-29 12:28N 37°36' E 023°25'13 5.7
2015-Mar-29 10:15N 37°24' E 023°30'7 2.4
2015-Mar-29 07:32N 37°30' E 023°31'1212.1
2015-Mar-29 06:33N 37°42' E 023°33'1212.1
2015-Mar-29 05:33N 37°53' E 023°38'3 3.4
2015-Mar-29 04:33N 37°56' E 023°41'0 0.0
2015-Mar-28 17:28N 37°56' E 023°41'9 9.6
2015-Mar-28 16:33N 37°51' E 023°32'11 3.6
2015-Mar-28 13:33N 37°42' E 023°25'14 7.0
2015-Mar-28 11:33N 37°28' E 023°30'13 3.3
2015-Mar-28 07:33N 37°42' E 023°32'1212.0
2015-Mar-28 06:33N 37°53' E 023°38'4 4.5
2015-Mar-28 05:33N 37°56' E 023°41'0 0.0
2015-Mar-28 04:33N 37°56' E 023°41'0 0.0
2015-Mar-28 03:33N 37°56' E 023°41'0 0.0
2015-Mar-28 02:33N 37°56' E 023°41'0 0.0
2015-Mar-28 01:33N 37°56' E 023°41'0 0.0
2015-Mar-28 00:33N 37°56' E 023°41'0 0.0
2015-Mar-27 23:33N 37°56' E 023°41'0 0.0
2015-Mar-27 22:33N 37°56' E 023°41'0 0.0
2015-Mar-27 21:33N 37°56' E 023°41'0 0.0
2015-Mar-27 20:33N 37°56' E 023°41'0 0.0
2015-Mar-27 19:33N 37°56' E 023°41'0 0.0
2015-Mar-27 18:33N 37°56' E 023°41'0 0.0
2015-Mar-27 17:33N 37°56' E 023°41'1 1.4
2015-Mar-27 16:33N 37°55' E 023°40'1211.7
2015-Mar-27 15:33N 37°47' E 023°29'4 1.2
2015-Mar-27 12:33N 37°45' E 023°25'1310.6
2015-Mar-27 11:20N 37°32' E 023°26'2 1.0
2015-Mar-27 09:10N 37°30' E 023°27'5 8.2
2015-Mar-27 08:33N 37°35' E 023°26'1411.4
2015-Mar-27 07:18N 37°49' E 023°28'810.8
2015-Mar-27 06:33N 37°52' E 023°37'5 5.2
2015-Mar-27 05:33N 37°56' E 023°41'0 0.0
2015-Mar-26 17:33N 37°56' E 023°41'1010.6
2015-Mar-26 16:33N 37°47' E 023°34'4 0.5
2015-Mar-26 07:33N 37°43' E 023°33'1212.0
2015-Mar-26 06:33N 37°54' E 023°39'2 2.4
2015-Mar-26 05:33N 37°56' E 023°41'0 0.0
2015-Mar-25 18:23N 37°56' E 023°41'0 0.0
2015-Mar-25 17:33N 37°56' E 023°41'9 9.3
2015-Mar-25 16:33N 37°50' E 023°32'12 3.9
2015-Mar-25 13:20N 37°39' E 023°25'18 5.8
2015-Mar-25 10:13N 37°21' E 023°28'0 0.2
2015-Mar-25 09:30N 37°21' E 023°28'18 9.1
2015-Mar-25 07:30N 37°37' E 023°40'1112.0
2015-Mar-25 06:33N 37°48' E 023°41'8 7.9
2015-Mar-25 05:33N 37°56' E 023°41'0 0.0
2015-Mar-25 04:33N 37°56' E 023°41'0 0.0
2015-Mar-24 17:33N 37°56' E 023°41'1110.9
2015-Mar-24 16:34N 37°49' E 023°30'28 4.0
2015-Mar-24 09:26N 37°21' E 023°28'2211.6
2015-Mar-24 07:33N 37°42' E 023°38'1211.9
2015-Mar-24 06:34N 37°53' E 023°40'3 2.9
2015-Mar-24 05:33N 37°56' E 023°41'0 0.0
2015-Mar-24 04:33N 37°56' E 023°41'0 0.0
2015-Mar-24 03:33N 37°56' E 023°41'0 0.0
2015-Mar-24 02:33N 37°56' E 023°41'0 0.0
2015-Mar-24 01:33N 37°56' E 023°41'0 0.0
2015-Mar-24 00:33N 37°56' E 023°41'0 0.0
2015-Mar-23 23:33N 37°56' E 023°41'0 0.0
2015-Mar-23 22:33N 37°56' E 023°41'0 0.0
2015-Mar-23 21:33N 37°56' E 023°41'0 0.0
2015-Mar-23 20:33N 37°56' E 023°41'0 0.0
2015-Mar-23 19:33N 37°56' E 023°41'0 0.0
2015-Mar-23 17:17N 37°56' E 023°41'6 8.2
2015-Mar-23 16:33N 37°51' E 023°37'13 4.2
2015-Mar-23 13:29N 37°43' E 023°25'15 7.2
2015-Mar-23 11:23N 37°28' E 023°31'16 4.0
2015-Mar-23 07:32N 37°43' E 023°33'1212.1
2015-Mar-23 06:33N 37°54' E 023°39'2 2.2
2015-Mar-23 05:33N 37°56' E 023°41'0 0.0
2015-Mar-22 17:33N 37°56' E 023°41'  
Track history (hours):
 
Tides and Currents Weather Stations Pressure Air Temp Water Temp Dewpoint Dewpoint Depression Visibility Wind Speed Wind Dir Waves Ship Positions

Platitera Tonouranon

Last reported at 2015-Apr-01 17:04 UTC. Time now 2015-Apr-02 03:11 UTC.
Position N 37°56' E 023°41'.

Length 55 m; draft 3.8 m.

Type: Ship (hazmat cat A). MMSI: 237038200.

Date/timePositionNaut miles runAvg speedWind from/ knotsBaromVisibWave heightAir tempDewpointWater temp
2015-Apr-01 17:04N 37°56' E 023°41'1 1.6
2015-Apr-01 16:33N 37°56' E 023°40'1110.7
2015-Apr-01 15:33N 37°49' E 023°30'5 5.4
2015-Apr-01 14:33N 37°45' E 023°26'0 0.0
2015-Apr-01 13:33N 37°45' E 023°26'5 5.3
2015-Apr-01 12:33N 37°39' E 023°25'12 6.1
2015-Apr-01 10:33N 37°28' E 023°31'3 1.0
2015-Apr-01 07:31N 37°31' E 023°33'1212.0
2015-Apr-01 06:29N 37°43' E 023°35'1112.0
2015-Apr-01 05:33N 37°53' E 023°39'3 3.0
2015-Apr-01 04:33N 37°56' E 023°41'0 0.0
2015-Mar-31 16:33N 37°56' E 023°41'1010.3
2015-Mar-31 15:33N 37°50' E 023°31'12 3.9
2015-Mar-31 12:27N 37°38' E 023°25'9 1.4
2015-Mar-31 06:23N 37°43' E 023°34'1012.2
2015-Mar-31 05:33N 37°53' E 023°39'4 3.9
2015-Mar-31 04:33N 37°56' E 023°41'0 0.0
2015-Mar-30 16:33N 37°56' E 023°41'1110.7
2015-Mar-30 15:33N 37°50' E 023°30'17 4.7
2015-Mar-30 12:04N 37°34' E 023°25'12 2.2
2015-Mar-30 06:28N 37°44' E 023°34'1112.0
2015-Mar-30 05:34N 37°54' E 023°39'3 2.9
2015-Mar-30 04:33N 37°56' E 023°41'1 0.1
2015-Mar-29 16:33N 37°55' E 023°40'1211.6
2015-Mar-29 15:33N 37°48' E 023°28'4 1.7
2015-Mar-29 13:11N 37°45' E 023°25'912.0
2015-Mar-29 12:28N 37°36' E 023°25'13 5.7
2015-Mar-29 10:15N 37°24' E 023°30'7 2.4
2015-Mar-29 07:32N 37°30' E 023°31'1212.1
2015-Mar-29 06:33N 37°42' E 023°33'1212.1
2015-Mar-29 05:33N 37°53' E 023°38'3 3.4
2015-Mar-29 04:33N 37°56' E 023°41'0 0.0
2015-Mar-28 17:28N 37°56' E 023°41'9 9.6
2015-Mar-28 16:33N 37°51' E 023°32'11 3.6
2015-Mar-28 13:33N 37°42' E 023°25'14 7.0
2015-Mar-28 11:33N 37°28' E 023°30'13 3.3
2015-Mar-28 07:33N 37°42' E 023°32'1212.0
2015-Mar-28 06:33N 37°53' E 023°38'4 4.5
2015-Mar-28 05:33N 37°56' E 023°41'0 0.0
2015-Mar-28 04:33N 37°56' E 023°41'0 0.0
2015-Mar-28 03:33N 37°56' E 023°41'0 0.0
2015-Mar-28 02:33N 37°56' E 023°41'0 0.0
2015-Mar-28 01:33N 37°56' E 023°41'0 0.0
2015-Mar-28 00:33N 37°56' E 023°41'0 0.0
2015-Mar-27 23:33N 37°56' E 023°41'0 0.0
2015-Mar-27 22:33N 37°56' E 023°41'0 0.0
2015-Mar-27 21:33N 37°56' E 023°41'0 0.0
2015-Mar-27 20:33N 37°56' E 023°41'0 0.0
2015-Mar-27 19:33N 37°56' E 023°41'0 0.0
2015-Mar-27 18:33N 37°56' E 023°41'0 0.0
2015-Mar-27 17:33N 37°56' E 023°41'1 1.4
2015-Mar-27 16:33N 37°55' E 023°40'1211.7
2015-Mar-27 15:33N 37°47' E 023°29'4 1.2
2015-Mar-27 12:33N 37°45' E 023°25'1310.6
2015-Mar-27 11:20N 37°32' E 023°26'2 1.0
2015-Mar-27 09:10N 37°30' E 023°27'5 8.2
2015-Mar-27 08:33N 37°35' E 023°26'1411.4
2015-Mar-27 07:18N 37°49' E 023°28'810.8
2015-Mar-27 06:33N 37°52' E 023°37'5 5.2
2015-Mar-27 05:33N 37°56' E 023°41'0 0.0
2015-Mar-26 17:33N 37°56' E 023°41'1010.6
2015-Mar-26 16:33N 37°47' E 023°34'4 0.5
2015-Mar-26 07:33N 37°43' E 023°33'1212.0
2015-Mar-26 06:33N 37°54' E 023°39'2 2.4
2015-Mar-26 05:33N 37°56' E 023°41'0 0.0
2015-Mar-25 18:23N 37°56' E 023°41'0 0.0
2015-Mar-25 17:33N 37°56' E 023°41'9 9.3
2015-Mar-25 16:33N 37°50' E 023°32'12 3.9
2015-Mar-25 13:20N 37°39' E 023°25'18 5.8
2015-Mar-25 10:13N 37°21' E 023°28'0 0.2
2015-Mar-25 09:30N 37°21' E 023°28'18 9.1
2015-Mar-25 07:30N 37°37' E 023°40'1112.0
2015-Mar-25 06:33N 37°48' E 023°41'8 7.9
2015-Mar-25 05:33N 37°56' E 023°41'0 0.0
2015-Mar-25 04:33N 37°56' E 023°41'0 0.0
2015-Mar-24 17:33N 37°56' E 023°41'1110.9
2015-Mar-24 16:34N 37°49' E 023°30'28 4.0
2015-Mar-24 09:26N 37°21' E 023°28'2211.6
2015-Mar-24 07:33N 37°42' E 023°38'1211.9
2015-Mar-24 06:34N 37°53' E 023°40'3 2.9
2015-Mar-24 05:33N 37°56' E 023°41'0 0.0
2015-Mar-24 04:33N 37°56' E 023°41'0 0.0
2015-Mar-24 03:33N 37°56' E 023°41'0 0.0
2015-Mar-24 02:33N 37°56' E 023°41'0 0.0
2015-Mar-24 01:33N 37°56' E 023°41'0 0.0
2015-Mar-24 00:33N 37°56' E 023°41'0 0.0
2015-Mar-23 23:33N 37°56' E 023°41'0 0.0
2015-Mar-23 22:33N 37°56' E 023°41'0 0.0
2015-Mar-23 21:33N 37°56' E 023°41'0 0.0
2015-Mar-23 20:33N 37°56' E 023°41'0 0.0
2015-Mar-23 19:33N 37°56' E 023°41'0 0.0
2015-Mar-23 17:17N 37°56' E 023°41'6 8.2
2015-Mar-23 16:33N 37°51' E 023°37'13 4.2
2015-Mar-23 13:29N 37°43' E 023°25'15 7.2
2015-Mar-23 11:23N 37°28' E 023°31'16 4.0
2015-Mar-23 07:32N 37°43' E 023°33'1212.1
2015-Mar-23 06:33N 37°54' E 023°39'2 2.2
2015-Mar-23 05:33N 37°56' E 023°41'0 0.0
2015-Mar-22 17:33N 37°56' E 023°41'  

Dump ship's entire track history